Time;durP1;ratioP1;P1;durP2;ratioP2;P2;SDS_P1;SDS_P2;PMS_P1;PMS_P2;Temp;Humidity;BMP_temperature;BMP_pressure;BME280_temperature;BME280_humidity;BME280_pressure;Samples;Min_cycle;Max_cycle;Signal;HPM_P1;HPM_P2
2022/10/02 00:02:02;;;;;;;4.07;1.67;;;;;;;21.14;52.81;101262.22;4981544;28;20130;-45
2022/10/02 00:04:37;;;;;;;4.57;1.60;;;;;;;21.14;53.41;101280.19;4983992;28;20074;-44
2022/10/02 00:07:06;;;;;;;5.07;1.88;;;;;;;21.14;53.27;101267.63;4982427;28;20124;-44
2022/10/02 00:09:45;;;;;;;4.85;1.67;;;;;;;21.13;53.16;101281.22;4983062;28;20037;-44
2022/10/02 00:12:15;;;;;;;4.28;1.60;;;;;;;21.11;53.59;101271.41;4980538;28;20065;-46
2022/10/02 00:14:44;;;;;;;4.43;1.60;;;;;;;21.15;52.85;101273.84;4983648;28;20038;-45
2022/10/02 00:17:19;;;;;;;5.22;1.80;;;;;;;21.14;53.17;101275.69;4984104;28;20469;-44
2022/10/02 00:19:45;;;;;;;4.82;1.85;;;;;;;21.12;53.33;101274.97;4985336;28;20038;-43
2022/10/02 00:22:24;;;;;;;6.22;2.03;;;;;;;21.09;53.18;101278.75;4981690;28;20033;-37
2022/10/02 00:25:01;;;;;;;4.88;1.65;;;;;;;21.10;53.58;101276.91;4984744;28;20072;-43
2022/10/02 00:27:35;;;;;;;2.85;1.48;;;;;;;21.07;53.01;101269.94;4984036;28;20532;-45
2022/10/02 00:30:04;;;;;;;6.85;1.90;;;;;;;21.08;53.75;101278.88;4982194;28;20061;-36
2022/10/02 00:32:51;;;;;;;4.53;1.60;;;;;;;21.11;53.12;101281.31;4980622;28;20029;-35
2022/10/02 00:35:23;;;;;;;5.35;1.80;;;;;;;21.09;53.62;101284.16;4980807;28;20061;-37
2022/10/02 00:38:30;;;;;;;5.30;1.70;;;;;;;21.06;53.13;101278.16;4981728;28;20045;-36
2022/10/02 00:41:37;;;;;;;6.60;1.90;;;;;;;21.05;53.17;101281.81;4985394;28;20037;-35
2022/10/02 00:44:42;;;;;;;6.13;2.03;;;;;;;21.04;53.28;101283.66;4983907;28;20050;-45
2022/10/02 00:47:29;;;;;;;6.70;1.83;;;;;;;21.04;53.83;101289.06;4986402;28;20042;-43
2022/10/02 00:50:16;;;;;;;3.95;1.60;;;;;;;21.03;53.57;101281.94;4985761;28;20041;-36
2022/10/02 00:53:09;;;;;;;5.22;1.80;;;;;;;21.02;53.28;101282.09;4987482;28;20553;-45
2022/10/02 00:56:04;;;;;;;5.30;1.80;;;;;;;21.04;53.57;101285.53;4987870;28;20034;-46
2022/10/02 00:58:34;;;;;;;5.40;1.73;;;;;;;20.99;53.80;101279.66;4996050;28;20119;-46
2022/10/02 01:01:21;;;;;;;7.23;2.10;;;;;;;21.01;53.55;101280.38;4988741;28;20045;-45
2022/10/02 01:03:53;;;;;;;5.50;1.80;;;;;;;21.01;53.51;101293.81;4987133;28;20300;-45
2022/10/02 01:06:21;;;;;;;5.20;1.73;;;;;;;21.02;53.26;101287.47;4986793;28;20611;-47
2022/10/02 01:08:47;;;;;;;5.13;1.98;;;;;;;21.02;53.72;101298.25;4987715;28;20041;-43
2022/10/02 01:11:12;;;;;;;4.47;1.70;;;;;;;21.00;53.75;101306.44;4987595;28;20034;-35
2022/10/02 01:13:38;;;;;;;8.43;2.03;;;;;;;20.98;53.68;101297.63;4987274;28;20072;-43
2022/10/02 01:16:12;;;;;;;8.00;2.08;;;;;;;20.97;54.10;101298.59;4987307;28;20429;-45
2022/10/02 01:18:39;;;;;;;8.65;1.92;;;;;;;20.99;53.67;101302.03;4989543;28;20044;-44
2022/10/02 01:21:11;;;;;;;6.80;1.92;;;;;;;20.97;54.24;101300.44;4989624;28;20046;-45
2022/10/02 01:24:21;;;;;;;5.40;2.10;;;;;;;20.98;54.06;101294.94;4982120;28;20642;-44
2022/10/02 01:26:47;;;;;;;6.60;1.83;;;;;;;20.96;53.91;101294.22;4981886;28;20080;-36
2022/10/02 01:29:13;;;;;;;5.50;1.70;;;;;;;20.93;53.56;101295.34;4983804;28;20437;-35
2022/10/02 01:31:38;;;;;;;4.47;2.10;;;;;;;20.95;53.78;101287.97;4985247;28;20482;-36
2022/10/02 01:34:04;;;;;;;5.88;1.98;;;;;;;20.95;54.25;101292.50;4984044;28;20069;-36
2022/10/02 01:36:31;;;;;;;5.18;2.10;;;;;;;20.95;54.01;101303.28;4992473;28;20337;-36
2022/10/02 01:38:57;;;;;;;5.82;1.98;;;;;;;20.95;53.69;101308.66;4985935;28;20437;-45
2022/10/02 01:41:23;;;;;;;5.93;1.92;;;;;;;20.95;53.47;101297.88;4988764;28;20385;-45
2022/10/02 01:43:57;;;;;;;5.60;1.83;;;;;;;20.93;53.64;101307.91;4987613;28;20258;-45
2022/10/02 01:46:49;;;;;;;5.75;1.83;;;;;;;20.95;54.00;101308.66;4984459;28;20057;-36
2022/10/02 01:49:29;;;;;;;5.00;2.13;;;;;;;20.94;53.87;101307.78;4986438;28;20080;-45
2022/10/02 01:52:25;;;;;;;4.28;1.98;;;;;;;20.94;54.22;101317.72;4987401;28;20042;-37
2022/10/02 01:55:17;;;;;;;5.13;2.03;;;;;;;20.93;53.75;101324.06;4985802;28;20038;-45
2022/10/02 01:57:51;;;;;;;5.20;1.95;;;;;;;20.91;54.17;101321.50;4988757;28;20065;-45
2022/10/02 02:00:21;;;;;;;5.60;2.20;;;;;;;20.91;53.96;101324.19;4985391;28;20034;-36
2022/10/02 02:02:55;;;;;;;5.43;1.88;;;;;;;20.91;54.17;101323.34;4983958;28;20108;-36
2022/10/02 02:05:39;;;;;;;6.03;1.98;;;;;;;20.92;53.61;101325.03;4984025;28;20112;-36
2022/10/02 02:08:07;;;;;;;5.30;2.03;;;;;;;20.88;53.66;101319.09;4985577;28;20137;-45
2022/10/02 02:10:44;;;;;;;5.68;1.90;;;;;;;20.89;53.95;101315.38;4988066;28;20273;-45
2022/10/02 02:13:40;;;;;;;4.97;1.88;;;;;;;20.89;53.83;101318.06;4985220;28;20673;-45
2022/10/02 02:16:25;;;;;;;5.53;1.95;;;;;;;20.86;53.86;101312.94;4985428;28;20038;-45
2022/10/02 02:19:00;;;;;;;4.70;1.90;;;;;;;20.88;53.97;101319.09;4984241;28;20069;-46
2022/10/02 02:21:36;;;;;;;4.53;2.00;;;;;;;20.84;53.90;101320.28;4987807;28;20034;-45
2022/10/02 02:24:07;;;;;;;6.53;2.05;;;;;;;20.85;54.33;101313.09;4987499;28;20564;-44
2022/10/02 02:26:33;;;;;;;5.95;2.25;;;;;;;20.84;54.22;101324.81;4981441;28;20679;-45
2022/10/02 02:29:07;;;;;;;6.13;2.22;;;;;;;20.86;54.00;101321.03;4987323;28;20456;-44
2022/10/02 02:31:39;;;;;;;6.05;1.90;;;;;;;20.85;53.90;101326.53;4988065;28;20029;-44
2022/10/02 02:34:15;;;;;;;4.88;1.80;;;;;;;20.83;53.96;101320.41;4985785;28;20526;-44
2022/10/02 02:36:44;;;;;;;5.60;1.77;;;;;;;20.84;54.53;101325.66;4976829;28;20030;-36
2022/10/02 02:39:15;;;;;;;4.15;1.85;;;;;;;20.82;53.95;101330.34;4983310;28;20380;-36
2022/10/02 02:41:45;;;;;;;5.75;1.95;;;;;;;20.84;54.02;101324.81;4987520;28;20099;-45
2022/10/02 02:44:29;;;;;;;4.80;1.83;;;;;;;20.85;54.46;101331.94;4987398;28;20393;-44
2022/10/02 02:47:11;;;;;;;5.85;1.90;;;;;;;20.84;54.23;101333.75;4985867;28;20497;-46
2022/10/02 02:50:10;;;;;;;5.53;2.00;;;;;;;20.84;54.26;101336.44;4985758;28;20046;-43
2022/10/02 02:52:44;;;;;;;6.15;2.00;;;;;;;20.83;54.35;101325.78;4986500;28;20632;-36
2022/10/02 02:55:16;;;;;;;4.95;2.00;;;;;;;20.83;54.04;101340.13;4982834;28;20037;-36
2022/10/02 02:58:06;;;;;;;5.50;1.83;;;;;;;20.80;54.46;101337.66;4982178;28;20068;-36
2022/10/02 03:00:32;;;;;;;5.53;1.85;;;;;;;20.79;54.57;101344.03;4981018;28;20486;-36
2022/10/02 03:02:57;;;;;;;5.20;2.00;;;;;;;20.79;54.55;101342.22;4981925;28;20042;-36
2022/10/02 03:05:24;;;;;;;4.78;1.83;;;;;;;20.81;54.03;101338.50;4983493;28;20050;-35
2022/10/02 03:07:55;;;;;;;6.10;2.17;;;;;;;20.82;54.14;101340.22;4983112;28;20033;-35
2022/10/02 03:10:38;;;;;;;6.45;2.13;;;;;;;20.78;54.27;101334.22;4981726;28;20425;-37
2022/10/02 03:13:22;;;;;;;7.30;2.13;;;;;;;20.80;54.19;101337.66;4982208;28;20030;-37
2022/10/02 03:16:07;;;;;;;5.03;2.00;;;;;;;20.76;54.13;101337.06;4982260;28;20546;-37
2022/10/02 03:19:14;;;;;;;5.97;2.28;;;;;;;20.80;54.47;101345.75;4982152;28;20065;-37
2022/10/02 03:21:56;;;;;;;5.90;2.15;;;;;;;20.79;54.68;101338.63;4997937;28;20087;-37
2022/10/02 03:24:30;;;;;;;5.70;1.98;;;;;;;20.78;54.29;101355.75;4983159;28;20041;-37
2022/10/02 03:27:19;;;;;;;5.90;2.05;;;;;;;20.76;54.24;101349.66;4982837;28;20124;-37
2022/10/02 03:30:06;;;;;;;4.70;1.90;;;;;;;20.78;54.45;101348.56;4981963;28;21736;-36
2022/10/02 03:32:33;;;;;;;6.55;1.90;;;;;;;20.74;54.72;101348.91;4982762;28;20601;-37
2022/10/02 03:35:01;;;;;;;5.68;2.33;;;;;;;20.72;54.41;101350.91;4982167;28;20378;-37
2022/10/02 03:37:27;;;;;;;6.28;2.17;;;;;;;20.72;54.86;101351.75;4982235;28;20482;-37
2022/10/02 03:39:57;;;;;;;6.03;2.30;;;;;;;20.73;54.96;101347.19;4982400;28;20028;-37
2022/10/02 03:42:25;;;;;;;4.90;2.00;;;;;;;20.76;54.38;101341.59;4981578;28;20034;-37
2022/10/02 03:44:51;;;;;;;5.80;1.90;;;;;;;20.73;54.35;101339.13;4981654;28;20042;-37
2022/10/02 03:47:16;;;;;;;5.45;2.00;;;;;;;20.72;54.51;101340.13;4981713;28;20062;-37
2022/10/02 03:49:42;;;;;;;6.40;1.77;;;;;;;20.73;54.63;101349.91;4982100;28;20038;-37
2022/10/02 03:52:14;;;;;;;6.07;2.40;;;;;;;20.72;54.42;101362.50;4980849;28;20041;-37
2022/10/02 03:54:40;;;;;;;6.25;1.85;;;;;;;20.71;54.84;101358.09;4979609;28;20030;-37
2022/10/02 03:57:07;;;;;;;6.78;1.98;;;;;;;20.70;54.65;101342.03;4981699;28;20072;-37
2022/10/02 03:59:35;;;;;;;5.43;2.10;;;;;;;20.72;54.87;101345.50;4980709;28;20038;-37
2022/10/02 04:02:05;;;;;;;5.28;1.83;;;;;;;20.70;55.10;101344.75;4980922;28;20038;-36
2022/10/02 04:04:41;;;;;;;4.82;1.83;;;;;;;20.69;54.47;101343.91;4981934;28;20216;-36
2022/10/02 04:07:16;;;;;;;5.35;1.83;;;;;;;20.68;55.07;101344.00;4981299;28;20105;-37
2022/10/02 04:09:57;;;;;;;5.25;1.80;;;;;;;20.66;54.89;101354.88;4981767;28;20040;-37
2022/10/02 04:12:31;;;;;;;5.18;1.90;;;;;;;20.67;54.63;101342.31;4980982;28;20037;-37
2022/10/02 04:15:22;;;;;;;4.90;1.83;;;;;;;20.68;54.86;101349.38;5011958;28;20042;-36
2022/10/02 04:17:57;;;;;;;5.15;1.88;;;;;;;20.64;54.86;101348.78;4982009;28;20092;-37
2022/10/02 04:20:30;;;;;;;5.13;1.83;;;;;;;20.66;55.25;101351.34;4981563;28;20030;-37
2022/10/02 04:23:16;;;;;;;5.50;1.88;;;;;;;20.63;55.23;101349.75;4985015;28;20049;-36
2022/10/02 04:25:48;;;;;;;5.03;1.80;;;;;;;20.65;55.07;101355.00;4985033;28;20044;-36
2022/10/02 04:28:18;;;;;;;6.05;1.85;;;;;;;20.65;54.91;101363.94;4984828;28;20652;-36
2022/10/02 04:30:44;;;;;;;4.60;1.83;;;;;;;20.63;54.74;101368.59;4985198;28;20084;-37
2022/10/02 04:33:21;;;;;;;3.75;1.70;;;;;;;20.65;54.68;101369.31;4984795;28;20033;-37
2022/10/02 04:36:01;;;;;;;5.38;1.80;;;;;;;20.62;54.71;101367.72;4984781;28;20034;-36
2022/10/02 04:39:04;;;;;;;5.97;1.90;;;;;;;20.62;55.36;101373.09;4985266;28;20817;-36
2022/10/02 04:41:32;;;;;;;4.65;1.92;;;;;;;20.63;55.05;101368.59;4984354;28;20363;-37
2022/10/02 04:44:09;;;;;;;3.88;1.70;;;;;;;20.60;54.94;101372.38;4984316;28;20073;-37
2022/10/02 04:46:53;;;;;;;4.90;1.85;;;;;;;20.62;55.34;101385.72;4984661;28;20057;-36
2022/10/02 04:49:54;;;;;;;4.80;1.73;;;;;;;20.62;55.42;101377.63;4985119;28;20140;-36
2022/10/02 04:52:32;;;;;;;4.60;1.63;;;;;;;20.62;55.01;101388.41;4976827;28;20422;-37
2022/10/02 04:55:22;;;;;;;6.00;1.90;;;;;;;20.64;55.00;101394.53;4985022;28;20557;-37
2022/10/02 04:58:01;;;;;;;5.70;1.83;;;;;;;20.62;55.49;101407.25;4984373;28;20034;-37
2022/10/02 05:00:36;;;;;;;6.65;1.88;;;;;;;20.59;55.21;101415.56;4985451;28;20682;-46
2022/10/02 05:03:10;;;;;;;5.22;1.90;;;;;;;20.59;55.14;101412.88;4985677;28;20356;-45
2022/10/02 05:06:13;;;;;;;4.07;1.73;;;;;;;20.61;55.41;101421.66;4987204;28;20568;-46
2022/10/02 05:08:56;;;;;;;4.20;1.80;;;;;;;20.61;54.92;101424.34;4986926;28;20371;-46
2022/10/02 05:11:45;;;;;;;5.68;1.83;;;;;;;20.56;55.20;101430.13;4986017;28;20099;-46
2022/10/02 05:14:58;;;;;;;7.55;2.08;;;;;;;20.67;55.18;101414.97;4985302;28;20025;-45
2022/10/02 05:17:45;;;;;;;5.57;1.90;;;;;;;20.81;54.32;101433.59;4987058;28;20049;-45
2022/10/02 05:20:35;;;;;;;4.00;1.90;;;;;;;20.92;53.89;101433.59;4983792;28;20041;-45
2022/10/02 05:23:37;;;;;;;4.60;2.13;;;;;;;21.01;53.95;101439.22;4983853;28;20056;-37
2022/10/02 05:26:37;;;;;;;4.93;1.77;;;;;;;21.14;53.49;101439.09;4983867;28;20463;-36
2022/10/02 05:29:33;;;;;;;4.35;1.70;;;;;;;21.27;53.69;101437.97;4982895;28;21431;-37
2022/10/02 05:32:21;;;;;;;4.55;1.80;;;;;;;21.40;53.69;101439.69;4979252;28;20686;-36
2022/10/02 05:34:49;;;;;;;5.03;1.80;;;;;;;21.49;53.56;101446.16;4981885;28;20053;-37
2022/10/02 05:37:43;;;;;;;5.93;1.95;;;;;;;21.56;53.43;101447.38;4983955;28;20862;-37
2022/10/02 05:40:30;;;;;;;4.63;1.60;;;;;;;21.62;53.37;101446.88;4983198;28;20091;-36
2022/10/02 05:43:22;;;;;;;6.55;1.83;;;;;;;21.67;53.15;101449.22;4983524;28;20561;-37
2022/10/02 05:45:58;;;;;;;4.32;1.52;;;;;;;21.73;53.25;101436.09;4983450;28;20034;-37
2022/10/02 05:49:02;;;;;;;4.13;1.80;;;;;;;21.80;53.16;101452.59;4983501;28;20072;-37
2022/10/02 05:51:46;;;;;;;5.13;1.70;;;;;;;21.83;52.78;101460.44;4981165;28;20129;-35
2022/10/02 05:54:33;;;;;;;4.60;2.03;;;;;;;21.87;53.05;101451.13;4983707;28;20044;-35
2022/10/02 05:57:25;;;;;;;5.50;2.15;;;;;;;21.96;52.93;101451.31;4983284;28;20037;-36
2022/10/02 05:59:55;;;;;;;5.03;1.90;;;;;;;21.96;53.21;101465.69;4982791;28;20079;-36
2022/10/02 06:02:39;;;;;;;3.17;1.55;;;;;;;21.97;52.87;101469.22;4984251;28;20037;-36
2022/10/02 06:05:14;;;;;;;4.90;1.77;;;;;;;22.01;52.88;101462.56;4987513;28;20600;-45
2022/10/02 06:07:45;;;;;;;4.45;1.70;;;;;;;22.02;52.82;101472.38;4984114;28;20029;-45
2022/10/02 06:10:16;;;;;;;2.17;1.30;;;;;;;21.99;52.83;101465.41;4984502;28;20493;-46
2022/10/02 06:12:51;;;;;;;4.90;1.70;;;;;;;21.99;52.98;101472.66;4983775;28;20036;-44
2022/10/02 06:15:23;;;;;;;4.25;1.63;;;;;;;21.97;53.17;101470.09;4983756;28;20401;-45
2022/10/02 06:17:55;;;;;;;5.45;1.85;;;;;;;21.94;53.51;101464.94;4984603;28;20533;-46
2022/10/02 06:20:36;;;;;;;3.03;1.52;;;;;;;21.92;53.52;101473.16;4984251;28;20025;-45
2022/10/02 06:23:29;;;;;;;4.70;1.75;;;;;;;21.93;53.52;101487.47;4983185;28;20477;-45
2022/10/02 06:26:00;;;;;;;4.82;1.80;;;;;;;21.92;53.70;101483.94;4984944;28;20557;-35
2022/10/02 06:28:35;;;;;;;5.30;1.90;;;;;;;21.90;53.75;101487.75;4983077;28;20038;-36
2022/10/02 06:31:09;;;;;;;4.80;1.70;;;;;;;21.90;53.92;101490.44;4990978;28;20092;-35
2022/10/02 06:33:35;;;;;;;5.78;1.90;;;;;;;21.90;53.77;101495.84;5015814;28;20125;-35
2022/10/02 06:36:26;;;;;;;4.72;1.73;;;;;;;21.89;54.01;101495.00;4983329;28;20857;-36
2022/10/02 06:39:28;;;;;;;4.03;1.60;;;;;;;21.87;54.18;101496.09;4983027;28;20795;-36
2022/10/02 06:42:27;;;;;;;5.05;1.67;;;;;;;21.84;53.96;101494.53;4983742;28;20028;-36
2022/10/02 06:45:05;;;;;;;5.85;2.10;;;;;;;21.84;54.16;101508.00;4983373;28;20096;-36
2022/10/02 06:47:56;;;;;;;5.32;1.90;;;;;;;21.81;54.09;101508.22;4982460;28;20050;-36
2022/10/02 06:50:43;;;;;;;4.70;1.70;;;;;;;21.81;54.17;101510.94;4990595;28;20159;-45
2022/10/02 06:53:34;;;;;;;6.00;1.90;;;;;;;21.79;54.59;101520.13;4985065;28;20064;-45
2022/10/02 06:56:31;;;;;;;4.80;1.85;;;;;;;21.77;54.50;101526.50;5000912;28;20096;-44
2022/10/02 06:59:03;;;;;;;5.18;1.70;;;;;;;21.77;54.30;101525.66;4992427;28;20078;-44
2022/10/02 07:01:45;;;;;;;4.53;1.70;;;;;;;21.74;54.37;101526.75;4984713;28;20037;-45
2022/10/02 07:04:31;;;;;;;4.63;1.70;;;;;;;21.70;54.14;101528.00;4985223;28;20028;-45
2022/10/02 07:07:19;;;;;;;5.75;2.00;;;;;;;21.67;54.05;101530.94;4990887;28;20284;-44
2022/10/02 07:09:58;;;;;;;5.93;1.83;;;;;;;21.64;54.48;101531.19;4984189;28;20034;-44
2022/10/02 07:13:01;;;;;;;4.00;1.67;;;;;;;21.62;54.73;101533.13;4982467;28;20042;-44
2022/10/02 07:15:31;;;;;;;7.82;2.17;;;;;;;21.81;54.37;101534.34;4972014;28;20081;-44
2022/10/02 07:18:27;;;;;;;7.57;2.22;;;;;;;21.89;54.41;101531.88;4972287;28;20462;-35
2022/10/02 07:21:08;;;;;;;5.10;1.60;;;;;;;21.90;54.46;101531.72;4977638;28;20921;-35
2022/10/02 07:23:59;;;;;;;7.50;2.20;;;;;;;21.90;54.82;101539.81;4977124;28;20121;-35
2022/10/02 07:26:25;;;;;;;7.32;2.28;;;;;;;21.93;54.51;101539.59;4976405;28;20085;-36
2022/10/02 07:29:09;;;;;;;7.45;2.33;;;;;;;21.97;54.13;101542.03;4976245;28;20149;-36
2022/10/02 07:31:48;;;;;;;6.22;2.22;;;;;;;21.97;54.20;101542.91;4977045;28;20336;-41
2022/10/02 07:34:22;;;;;;;8.75;2.25;;;;;;;21.97;54.59;101544.72;4977026;28;20107;-41
2022/10/02 07:37:06;;;;;;;7.80;1.85;;;;;;;21.96;54.70;101551.09;4968681;28;20021;-43
2022/10/02 07:39:37;;;;;;;7.90;2.13;;;;;;;21.94;54.81;101545.81;4977104;28;20490;-43
2022/10/02 07:42:30;;;;;;;8.32;2.05;;;;;;;21.93;54.58;101549.50;4976413;28;20410;-43
2022/10/02 07:45:35;;;;;;;5.22;2.15;;;;;;;21.96;54.88;101551.97;4975677;28;20065;-41
2022/10/02 07:48:06;;;;;;;6.28;1.98;;;;;;;21.96;54.71;101549.25;4976766;28;20556;-36
2022/10/02 07:50:59;;;;;;;7.28;2.30;;;;;;;21.97;55.18;101555.50;4975717;28;20109;-36
2022/10/02 07:53:53;;;;;;;7.18;2.33;;;;;;;21.96;55.11;101559.19;4967333;28;20285;-35
2022/10/02 07:56:22;;;;;;;9.68;3.00;;;;;;;21.96;55.29;101560.06;4976637;28;20029;-42
2022/10/02 07:58:53;;;;;;;11.82;2.97;;;;;;;21.97;55.13;101568.97;4976284;28;21081;-36
2022/10/02 08:01:23;;;;;;;25.15;3.72;;;;;;;21.97;54.83;101574.38;4978242;28;20168;-36
2022/10/02 08:04:02;;;;;;;16.10;3.85;;;;;;;22.00;54.82;101577.69;4977143;28;20342;-35
2022/10/02 08:06:28;;;;;;;10.43;3.38;;;;;;;22.00;54.73;101579.53;4976792;28;20092;-35
2022/10/02 08:09:22;;;;;;;9.05;3.10;;;;;;;21.98;55.01;101589.59;4975404;28;20030;-36
2022/10/02 08:11:52;;;;;;;10.95;3.10;;;;;;;21.94;55.03;101588.97;4974713;28;20371;-46
2022/10/02 08:14:37;;;;;;;10.17;3.13;;;;;;;21.91;55.14;101576.59;4974774;28;20113;-46
2022/10/02 08:17:26;;;;;;;9.35;2.65;;;;;;;21.91;54.83;101597.31;4974699;28;20030;-36
2022/10/02 08:19:56;;;;;;;9.45;2.97;;;;;;;21.89;54.75;101600.16;4973316;28;20046;-36
2022/10/02 08:22:32;;;;;;;12.23;3.33;;;;;;;21.88;54.99;101609.22;4975753;28;20029;-36
2022/10/02 08:25:04;;;;;;;12.13;2.60;;;;;;;21.88;54.79;101614.59;4972533;28;20040;-36
2022/10/02 08:28:03;;;;;;;7.90;2.50;;;;;;;21.88;54.75;101613.72;4975160;28;20172;-36
2022/10/02 08:30:29;;;;;;;8.85;2.97;;;;;;;21.87;54.83;101617.44;4974681;28;20103;-36
2022/10/02 08:32:55;;;;;;;8.70;2.55;;;;;;;21.85;55.01;101628.31;4974939;28;20289;-47
2022/10/02 08:35:32;;;;;;;10.82;2.65;;;;;;;21.86;54.72;101626.50;4975716;28;20040;-46
2022/10/02 08:38:18;;;;;;;6.93;2.40;;;;;;;21.86;54.99;101627.34;4976817;28;20041;-47
2022/10/02 08:41:21;;;;;;;9.85;2.70;;;;;;;21.85;54.82;101635.56;4974377;28;20079;-35
2022/10/02 08:43:58;;;;;;;9.65;2.63;;;;;;;21.87;54.58;101642.53;4973447;28;20555;-35
2022/10/02 08:46:39;;;;;;;11.30;3.42;;;;;;;21.86;54.69;101635.44;4972378;28;20457;-35
2022/10/02 08:49:32;;;;;;;9.73;2.70;;;;;;;21.86;54.96;101642.69;4975098;28;20399;-35
2022/10/02 08:52:34;;;;;;;8.10;2.35;;;;;;;21.86;54.39;101643.53;4974930;28;20073;-35
2022/10/02 08:55:19;;;;;;;8.15;2.45;;;;;;;21.86;54.49;101640.81;4976547;28;20026;-36
2022/10/02 08:58:04;;;;;;;9.25;2.50;;;;;;;21.86;54.65;101651.59;4981140;28;20168;-46
2022/10/02 09:00:58;;;;;;;9.68;2.88;;;;;;;21.85;54.88;101651.75;4981215;28;20510;-46
2022/10/02 09:03:51;;;;;;;7.45;2.30;;;;;;;21.83;54.60;101653.69;4981746;28;20033;-46
2022/10/02 09:06:22;;;;;;;5.95;2.30;;;;;;;21.83;54.49;101657.25;4981934;28;20085;-35
2022/10/02 09:09:15;;;;;;;7.32;2.47;;;;;;;21.81;54.57;101669.16;4983562;28;20157;-35
2022/10/02 09:12:09;;;;;;;6.10;2.10;;;;;;;21.79;54.35;101668.41;4983979;28;20627;-35
2022/10/02 09:14:37;;;;;;;7.32;2.20;;;;;;;21.80;54.63;101662.03;4985075;28;20096;-48
2022/10/02 09:17:31;;;;;;;6.28;2.20;;;;;;;21.79;54.54;101677.38;4983707;28;21424;-45
2022/10/02 09:20:27;;;;;;;7.10;2.50;;;;;;;21.79;54.77;101676.47;4985674;28;20046;-36
2022/10/02 09:23:20;;;;;;;7.32;2.38;;;;;;;21.77;54.93;101673.91;4985652;28;20117;-36
2022/10/02 09:25:55;;;;;;;6.38;2.10;;;;;;;21.76;54.60;101680.28;4985516;28;20041;-36
2022/10/02 09:28:41;;;;;;;338.20;20.27;;;;;;;21.76;55.06;101683.84;4984915;28;20030;-38
2022/10/02 09:31:25;;;;;;;6.18;2.00;;;;;;;21.85;54.95;101684.09;4975743;28;20486;-35
2022/10/02 09:34:24;;;;;;;9.63;2.50;;;;;;;21.88;54.64;101681.13;4975976;28;20034;-36
2022/10/02 09:36:59;;;;;;;6.30;2.10;;;;;;;21.93;54.69;101687.91;4977281;28;20030;-48
2022/10/02 09:40:16;;;;;;;6.30;1.88;;;;;;;21.99;54.19;101689.22;4977305;28;20109;-37
2022/10/02 09:43:00;;;;;;;6.80;2.22;;;;;;;22.07;53.81;101689.50;4971015;28;20790;-37
2022/10/02 09:45:35;;;;;;;7.18;2.10;;;;;;;22.12;53.83;101694.50;4974879;28;20253;-40
2022/10/02 09:48:22;;;;;;;12.07;2.50;;;;;;;22.15;53.74;101694.28;4978700;28;20184;-42
2022/10/02 09:51:09;;;;;;;7.18;2.20;;;;;;;22.15;53.87;101693.38;4991511;28;20065;-46
2022/10/02 09:54:00;;;;;;;7.18;2.28;;;;;;;22.18;53.85;101704.78;4993669;28;20383;-43
2022/10/02 09:56:44;;;;;;;4.97;1.85;;;;;;;22.20;53.67;101699.28;4977839;28;21021;-45
2022/10/02 09:59:28;;;;;;;6.90;2.05;;;;;;;22.23;53.73;101707.97;4978114;28;20797;-46
2022/10/02 10:02:14;;;;;;;5.45;1.83;;;;;;;22.22;53.71;101706.25;4967010;28;20041;-45
2022/10/02 10:05:18;;;;;;;5.10;1.95;;;;;;;22.26;53.65;101702.34;4978240;28;20053;-47
2022/10/02 10:07:52;;;;;;;4.75;1.90;;;;;;;22.31;53.52;101706.50;4979287;28;20059;-46
2022/10/02 10:10:37;;;;;;;5.78;1.90;;;;;;;22.29;53.80;101717.44;4979978;28;20046;-46
2022/10/02 10:13:21;;;;;;;6.40;1.95;;;;;;;22.31;53.52;101730.78;4979954;28;20022;-46
2022/10/02 10:16:10;;;;;;;4.68;1.85;;;;;;;22.32;53.47;101735.22;4979756;28;20482;-37
2022/10/02 10:19:01;;;;;;;9.07;2.20;;;;;;;22.34;53.46;101731.41;4979016;28;20025;-37
2022/10/02 10:21:45;;;;;;;6.28;2.20;;;;;;;22.36;53.39;101747.47;4978415;28;20573;-37
2022/10/02 10:24:48;;;;;;;5.00;1.98;;;;;;;22.36;53.40;101736.69;4992396;28;20048;-36
2022/10/02 10:27:38;;;;;;;4.85;1.90;;;;;;;22.38;53.47;101743.69;4976413;28;20065;-36
2022/10/02 10:30:20;;;;;;;6.90;1.90;;;;;;;22.40;53.41;101754.38;4974510;28;20959;-35
2022/10/02 10:33:33;;;;;;;4.50;1.98;;;;;;;22.40;53.33;101752.53;4978312;28;20263;-36
2022/10/02 10:39:17;;;;;;;7.18;2.10;;;;;;;22.44;53.28;101758.53;4978072;28;20040;-36
2022/10/02 10:42:15;;;;;;;6.10;2.00;;;;;;;22.43;53.29;101759.53;4977826;28;20124;-34
2022/10/02 10:44:59;;;;;;;6.90;2.00;;;;;;;22.47;53.03;101760.13;4977957;28;20925;-35
2022/10/02 10:47:27;;;;;;;5.95;1.90;;;;;;;22.47;53.27;101754.72;4977538;28;20446;-34
2022/10/02 10:50:16;;;;;;;320.65;18.20;;;;;;;22.49;53.37;101763.56;4980630;28;20123;-37
2022/10/02 10:53:02;;;;;;;5.30;2.00;;;;;;;22.53;52.93;101767.72;4979413;28;20245;-36
2022/10/02 10:55:57;;;;;;;34.75;3.22;;;;;;;22.54;52.90;101767.59;4977422;28;20345;-37
2022/10/02 10:58:38;;;;;;;6.15;2.13;;;;;;;22.55;52.78;101771.16;4978994;28;20615;-37
2022/10/02 11:01:12;;;;;;;6.15;2.00;;;;;;;22.56;52.85;101773.72;4980338;28;20067;-43
2022/10/02 11:04:12;;;;;;;6.00;1.80;;;;;;;22.57;52.83;101774.56;4980908;28;20038;-48
2022/10/02 11:06:44;;;;;;;8.23;2.20;;;;;;;22.58;52.66;101787.97;4975301;28;20529;-47
2022/10/02 11:09:57;;;;;;;5.63;1.83;;;;;;;22.58;52.80;101785.28;4974921;28;20420;-44
2022/10/02 11:12:44;;;;;;;6.88;1.92;;;;;;;22.62;52.91;101785.84;4973891;28;20052;-37
2022/10/02 11:15:22;;;;;;;4.82;2.20;;;;;;;22.63;52.93;101774.09;4972805;28;20567;-39
2022/10/02 11:18:11;;;;;;;6.80;2.20;;;;;;;22.64;53.01;101785.75;4964055;28;20042;-37
2022/10/02 11:20:49;;;;;;;3.97;1.75;;;;;;;22.66;52.89;101803.53;4981335;28;20065;-44
2022/10/02 11:23:27;;;;;;;5.03;2.00;;;;;;;22.69;52.83;101800.59;4982262;28;20054;-36
2022/10/02 11:25:55;;;;;;;6.40;2.03;;;;;;;22.71;52.94;101795.06;4976527;28;20033;-37
2022/10/02 11:28:47;;;;;;;6.95;2.05;;;;;;;22.72;52.56;101796.78;4983629;28;20040;-38
2022/10/02 11:31:45;;;;;;;4.95;1.90;;;;;;;22.74;52.86;101797.53;4975230;28;20053;-37
2022/10/02 11:34:45;;;;;;;4.75;1.65;;;;;;;22.72;52.74;101803.06;4976992;28;20061;-37
2022/10/02 11:37:25;;;;;;;5.60;1.73;;;;;;;22.74;52.80;101805.63;4986375;28;20124;-45
2022/10/02 11:40:12;;;;;;;5.13;1.90;;;;;;;22.75;52.60;101808.19;4984531;28;20049;-45
2022/10/02 11:42:41;;;;;;;5.78;2.00;;;;;;;22.75;52.51;101804.66;4977278;28;20048;-38
2022/10/02 11:45:32;;;;;;;6.05;2.00;;;;;;;22.76;52.32;101795.53;4977392;28;20061;-40
2022/10/02 11:48:32;;;;;;;13.40;2.50;;;;;;;22.75;52.50;101804.66;4974711;28;20042;-37
2022/10/02 11:51:09;;;;;;;4.45;1.90;;;;;;;22.70;52.48;101813.09;4975449;28;20045;-38
2022/10/02 11:53:59;;;;;;;5.05;2.00;;;;;;;22.65;52.57;101814.44;4976217;28;21748;-37
2022/10/02 11:56:39;;;;;;;4.45;1.70;;;;;;;22.61;52.83;101813.84;4977343;28;20131;-37
2022/10/02 11:59:28;;;;;;;7.35;2.13;;;;;;;22.58;52.67;101817.66;4975903;28;20556;-37
2022/10/02 12:02:15;;;;;;;6.68;2.00;;;;;;;22.56;52.66;101826.88;4975305;28;20440;-37
2022/10/02 12:05:09;;;;;;;6.47;2.10;;;;;;;22.55;52.73;101830.53;4975344;28;20030;-36
2022/10/02 12:07:57;;;;;;;7.25;2.10;;;;;;;22.54;52.81;101832.38;4976665;28;20789;-45
2022/10/02 12:10:57;;;;;;;10.07;2.38;;;;;;;22.54;52.87;101831.53;4976870;28;20037;-44
2022/10/02 12:13:31;;;;;;;6.32;1.80;;;;;;;22.56;52.80;101840.38;4971206;28;20042;-44
2022/10/02 12:16:10;;;;;;;8.30;1.92;;;;;;;22.56;52.96;101840.38;4975687;28;20124;-47
2022/10/02 12:18:57;;;;;;;6.82;2.10;;;;;;;22.55;53.52;101844.88;4973263;28;20045;-45
2022/10/02 12:27:43;;;;;;;14.90;3.05;;;;;;;22.59;54.36;101856.31;4975121;28;20386;-47
2022/10/02 12:30:15;;;;;;;11.00;2.55;;;;;;;22.59;54.88;101854.44;4974456;28;20028;-46
2022/10/02 12:33:06;;;;;;;11.60;2.70;;;;;;;22.62;54.33;101853.34;4973756;28;20033;-47
2022/10/02 12:35:40;;;;;;;11.27;2.60;;;;;;;22.63;54.31;101852.38;4975629;28;20501;-45
2022/10/02 12:38:22;;;;;;;9.57;2.88;;;;;;;22.65;54.32;101854.94;4976399;28;20817;-50
2022/10/02 12:41:18;;;;;;;10.05;2.58;;;;;;;22.66;54.05;101865.63;4975976;28;20497;-45